sensor_id;sensor_type;location;lat;lon;timestamp;pressure;altitude;pressure_sealevel;temperature;humidity
26861;BME280;37676;46.956;7.430;2022-08-21T00:00:14;95269.41;;;22.46;54.64
26861;BME280;37676;46.956;7.430;2022-08-21T00:02:48;95457.50;;;23.81;54.96
26861;BME280;37676;46.956;7.430;2022-08-21T00:05:15;95248.44;;;22.34;54.66
26861;BME280;37676;46.956;7.430;2022-08-21T00:07:40;95468.69;;;23.79;54.61
26861;BME280;37676;46.956;7.430;2022-08-21T00:10:06;95437.53;;;23.56;54.84
26861;BME280;37676;46.956;7.430;2022-08-21T00:12:32;95465.47;;;23.75;54.75
26861;BME280;37676;46.956;7.430;2022-08-21T00:14:58;95468.31;;;23.75;54.60
26861;BME280;37676;46.956;7.430;2022-08-21T00:17:23;95456.22;;;23.67;54.79
26861;BME280;37676;46.956;7.430;2022-08-21T00:19:48;95466.81;;;23.74;54.86
26861;BME280;37676;46.956;7.430;2022-08-21T00:22:14;95456.97;;;23.75;54.86
26861;BME280;37676;46.956;7.430;2022-08-21T00:24:39;95458.50;;;23.69;55.11
26861;BME280;37676;46.956;7.430;2022-08-21T00:27:04;95458.47;;;23.76;55.04
26861;BME280;37676;46.956;7.430;2022-08-21T00:29:29;95457.72;;;23.76;55.31
26861;BME280;37676;46.956;7.430;2022-08-21T00:31:55;95461.47;;;23.78;55.17
26861;BME280;37676;46.956;7.430;2022-08-21T00:34:20;95465.66;;;23.77;55.48
26861;BME280;37676;46.956;7.430;2022-08-21T00:36:45;95456.97;;;23.75;55.02
26861;BME280;37676;46.956;7.430;2022-08-21T00:39:11;95479.09;;;23.77;55.53
26861;BME280;37676;46.956;7.430;2022-08-21T00:41:38;95458.47;;;23.76;55.57
26861;BME280;37676;46.956;7.430;2022-08-21T00:44:08;95452.06;;;23.68;55.38
26861;BME280;37676;46.956;7.430;2022-08-21T00:46:34;95469.81;;;23.76;55.49
26861;BME280;37676;46.956;7.430;2022-08-21T00:49:00;95474.78;;;23.76;55.41
26861;BME280;37676;46.956;7.430;2022-08-21T00:51:30;95461.47;;;23.78;55.58
26861;BME280;37676;46.956;7.430;2022-08-21T00:53:59;95465.66;;;23.77;55.82
26861;BME280;37676;46.956;7.430;2022-08-21T00:56:26;95455.78;;;23.78;55.88
26861;BME280;37676;46.956;7.430;2022-08-21T00:58:53;95455.78;;;23.78;55.96
26861;BME280;37676;46.956;7.430;2022-08-21T01:01:21;95451.63;;;23.79;55.95
26861;BME280;37676;46.956;7.430;2022-08-21T01:03:46;95443.13;;;23.79;56.11
26861;BME280;37676;46.956;7.430;2022-08-21T01:06:12;95371.63;;;23.26;55.82
26861;BME280;37676;46.956;7.430;2022-08-21T01:08:37;95452.78;;;23.76;55.82
26861;BME280;37676;46.956;7.430;2022-08-21T01:11:03;95449.19;;;23.76;56.19
26861;BME280;37676;46.956;7.430;2022-08-21T01:13:30;95452.03;;;23.76;56.17
26861;BME280;37676;46.956;7.430;2022-08-21T01:15:58;95452.03;;;23.76;56.22
26861;BME280;37676;46.956;7.430;2022-08-21T01:18:25;95446.91;;;23.74;56.29
26861;BME280;37676;46.956;7.430;2022-08-21T01:21:11;95448.44;;;23.75;55.95
26861;BME280;37676;46.956;7.430;2022-08-21T01:23:38;95436.13;;;23.73;56.08
26861;BME280;37676;46.956;7.430;2022-08-21T01:26:05;95444.06;;;23.74;56.19
26861;BME280;37676;46.956;7.430;2022-08-21T01:28:38;95444.84;;;23.75;56.18
26861;BME280;37676;46.956;7.430;2022-08-21T01:31:06;95442.00;;;23.75;56.56
26861;BME280;37676;46.956;7.430;2022-08-21T01:33:33;95009.94;;;20.89;56.45
26861;BME280;37676;46.956;7.430;2022-08-21T01:35:58;95418.44;;;23.57;56.25
26861;BME280;37676;46.956;7.430;2022-08-21T01:38:24;95431.28;;;23.58;56.09
26861;BME280;37676;46.956;7.430;2022-08-21T01:40:49;95432.00;;;23.66;56.53
26861;BME280;37676;46.956;7.430;2022-08-21T01:43:14;95436.16;;;23.65;56.19
26861;BME280;37676;46.956;7.430;2022-08-21T01:45:40;95429.00;;;23.64;56.10
26861;BME280;37676;46.956;7.430;2022-08-21T01:48:05;95415.22;;;23.53;56.33
26861;BME280;37676;46.956;7.430;2022-08-21T01:50:31;95424.44;;;23.61;56.31
26861;BME280;37676;46.956;7.430;2022-08-21T01:52:56;95424.28;;;23.59;56.45
26861;BME280;37676;46.956;7.430;2022-08-21T01:55:22;95414.88;;;23.49;56.29
26861;BME280;37676;46.956;7.430;2022-08-21T01:57:48;95417.84;;;23.58;56.46
26861;BME280;37676;46.956;7.430;2022-08-21T02:00:16;95395.75;;;23.49;56.46
26861;BME280;37676;46.956;7.430;2022-08-21T02:02:42;95418.59;;;23.59;56.68
26861;BME280;37676;46.956;7.430;2022-08-21T02:05:10;95343.66;;;23.15;56.69
26861;BME280;37676;46.956;7.430;2022-08-21T02:07:43;95415.78;;;23.59;56.63
26861;BME280;37676;46.956;7.430;2022-08-21T02:10:12;95407.81;;;23.57;56.89
26861;BME280;37676;46.956;7.430;2022-08-21T02:12:38;95412.00;;;23.56;56.50
26861;BME280;37676;46.956;7.430;2022-08-21T02:15:05;95407.06;;;23.57;56.69
26861;BME280;37676;46.956;7.430;2022-08-21T02:17:44;95408.56;;;23.58;56.62
26861;BME280;37676;46.956;7.430;2022-08-21T02:20:14;95377.81;;;23.39;56.53
26861;BME280;37676;46.956;7.430;2022-08-21T02:22:40;95381.19;;;23.45;56.72
26861;BME280;37676;46.956;7.430;2022-08-21T02:25:06;95411.22;;;23.56;56.66
26861;BME280;37676;46.956;7.430;2022-08-21T02:27:41;95397.19;;;23.58;56.76
26861;BME280;37676;46.956;7.430;2022-08-21T02:30:11;95395.69;;;23.57;56.48
26861;BME280;37676;46.956;7.430;2022-08-21T02:32:36;95391.53;;;23.58;56.99
26861;BME280;37676;46.956;7.430;2022-08-21T02:35:02;95395.69;;;23.57;56.64
26861;BME280;37676;46.956;7.430;2022-08-21T02:37:28;95392.09;;;23.56;56.94
26861;BME280;37676;46.956;7.430;2022-08-21T02:39:53;95385.53;;;23.46;56.81
26861;BME280;37676;46.956;7.430;2022-08-21T02:42:19;95380.97;;;23.51;56.62
26861;BME280;37676;46.956;7.430;2022-08-21T02:44:44;95395.34;;;23.53;56.89
26861;BME280;37676;46.956;7.430;2022-08-21T02:47:10;95390.06;;;23.49;56.95
26861;BME280;37676;46.956;7.430;2022-08-21T02:49:35;95390.66;;;23.48;56.62
26861;BME280;37676;46.956;7.430;2022-08-21T02:52:00;95387.44;;;23.44;56.67
26861;BME280;37676;46.956;7.430;2022-08-21T02:54:26;95392.75;;;23.40;56.75
26861;BME280;37676;46.956;7.430;2022-08-21T02:56:51;95391.22;;;23.39;57.01
26861;BME280;37676;46.956;7.430;2022-08-21T02:59:16;95392.56;;;23.38;56.92
26861;BME280;37676;46.956;7.430;2022-08-21T03:01:42;95388.25;;;23.37;57.21
26861;BME280;37676;46.956;7.430;2022-08-21T03:04:07;95380.28;;;23.35;56.99
26861;BME280;37676;46.956;7.430;2022-08-21T03:06:32;95383.88;;;23.36;56.84
26861;BME280;37676;46.956;7.430;2022-08-21T03:08:59;95386.72;;;23.36;56.96
26861;BME280;37676;46.956;7.430;2022-08-21T03:11:24;95390.91;;;23.35;57.02
26861;BME280;37676;46.956;7.430;2022-08-21T03:13:50;95383.69;;;23.34;56.73
26861;BME280;37676;46.956;7.430;2022-08-21T03:16:16;95387.69;;;23.31;56.58
26861;BME280;37676;46.956;7.430;2022-08-21T03:18:41;95391.63;;;23.28;56.94
26861;BME280;37676;46.956;7.430;2022-08-21T03:21:06;95360.72;;;23.07;56.56
26861;BME280;37676;46.956;7.430;2022-08-21T03:23:32;95390.56;;;23.16;56.87
26861;BME280;37676;46.956;7.430;2022-08-21T03:25:57;95274.34;;;22.31;56.71
26861;BME280;37676;46.956;7.430;2022-08-21T03:28:23;95392.50;;;23.06;56.82
26861;BME280;37676;46.956;7.430;2022-08-21T03:30:50;95387.41;;;23.04;56.87
26861;BME280;37676;46.956;7.430;2022-08-21T03:33:16;95188.53;;;21.68;56.69
26861;BME280;37676;46.956;7.430;2022-08-21T03:35:45;95349.84;;;22.81;56.78
26861;BME280;37676;46.956;7.430;2022-08-21T03:38:12;95191.72;;;21.72;56.79
26861;BME280;37676;46.956;7.430;2022-08-21T03:40:38;95361.97;;;22.82;56.76
26861;BME280;37676;46.956;7.430;2022-08-21T03:43:04;95386.09;;;22.98;56.66
26861;BME280;37676;46.956;7.430;2022-08-21T03:45:30;95380.25;;;22.96;56.69
26861;BME280;37676;46.956;7.430;2022-08-21T03:48:01;95390.25;;;22.97;56.86
26861;BME280;37676;46.956;7.430;2022-08-21T03:50:31;95374.41;;;22.86;56.60
26861;BME280;37676;46.956;7.430;2022-08-21T03:52:57;95389.91;;;22.93;56.59
26861;BME280;37676;46.956;7.430;2022-08-21T03:55:24;95387.06;;;22.93;56.87
26861;BME280;37676;46.956;7.430;2022-08-21T03:57:50;95392.00;;;22.92;56.56
26861;BME280;37676;46.956;7.430;2022-08-21T04:00:16;95388.38;;;22.92;56.48
26861;BME280;37676;46.956;7.430;2022-08-21T04:02:42;95389.72;;;22.91;56.64
26861;BME280;37676;46.956;7.430;2022-08-21T04:05:09;95391.03;;;22.90;56.56
26861;BME280;37676;46.956;7.430;2022-08-21T04:07:35;95376.69;;;22.80;56.64
26861;BME280;37676;46.956;7.430;2022-08-21T04:10:01;95389.38;;;22.87;56.81
26861;BME280;37676;46.956;7.430;2022-08-21T04:12:26;95396.94;;;22.84;56.59
26861;BME280;37676;46.956;7.430;2022-08-21T04:14:52;95390.31;;;22.82;56.75
26861;BME280;37676;46.956;7.430;2022-08-21T04:17:17;95398.66;;;22.80;56.67
26861;BME280;37676;46.956;7.430;2022-08-21T04:19:43;95341.41;;;22.43;56.61
26861;BME280;37676;46.956;7.430;2022-08-21T04:22:09;95391.09;;;22.75;56.71
26861;BME280;37676;46.956;7.430;2022-08-21T04:24:34;95395.44;;;22.76;56.81
26861;BME280;37676;46.956;7.430;2022-08-21T04:27:00;95394.50;;;22.73;56.88
26861;BME280;37676;46.956;7.430;2022-08-21T04:29:25;95397.16;;;22.71;57.00
26861;BME280;37676;46.956;7.430;2022-08-21T04:31:51;95371.84;;;22.43;56.89
26861;BME280;37676;46.956;7.430;2022-08-21T04:34:17;95404.53;;;22.67;56.99
26861;BME280;37676;46.956;7.430;2022-08-21T04:36:43;95360.91;;;22.32;56.67
26861;BME280;37676;46.956;7.430;2022-08-21T04:39:08;95413.81;;;22.59;56.74
26861;BME280;37676;46.956;7.430;2022-08-21T04:41:34;95414.94;;;22.56;56.90
26861;BME280;37676;46.956;7.430;2022-08-21T04:44:01;95394.16;;;22.46;56.80
26861;BME280;37676;46.956;7.430;2022-08-21T04:46:26;95405.31;;;22.52;56.96
26861;BME280;37676;46.956;7.430;2022-08-21T04:48:51;95403.06;;;22.35;57.02
26861;BME280;37676;46.956;7.430;2022-08-21T04:51:25;95110.59;;;20.46;56.74
26861;BME280;37676;46.956;7.430;2022-08-21T04:54:01;95421.38;;;22.49;57.03
26861;BME280;37676;46.956;7.430;2022-08-21T04:56:55;95418.91;;;22.46;56.99
26861;BME280;37676;46.956;7.430;2022-08-21T04:59:24;95324.28;;;21.81;57.12
26861;BME280;37676;46.956;7.430;2022-08-21T05:01:51;95278.75;;;21.34;57.34
26861;BME280;37676;46.956;7.430;2022-08-21T05:04:21;95418.34;;;22.40;57.58
26861;BME280;37676;46.956;7.430;2022-08-21T05:06:48;95416.09;;;22.38;57.44
26861;BME280;37676;46.956;7.430;2022-08-21T05:09:15;95191.34;;;20.93;57.25
26861;BME280;37676;46.956;7.430;2022-08-21T05:11:42;95409.66;;;22.38;57.41
26861;BME280;37676;46.956;7.430;2022-08-21T05:14:09;95373.19;;;22.04;57.43
26861;BME280;37676;46.956;7.430;2022-08-21T05:16:34;95420.25;;;22.30;57.69
26861;BME280;37676;46.956;7.430;2022-08-21T05:19:00;95424.41;;;22.29;57.42
26861;BME280;37676;46.956;7.430;2022-08-21T05:21:25;95417.22;;;22.28;57.73
26861;BME280;37676;46.956;7.430;2022-08-21T05:23:51;95376.41;;;22.01;57.71
26861;BME280;37676;46.956;7.430;2022-08-21T05:26:16;95416.09;;;22.23;57.83
26861;BME280;37676;46.956;7.430;2022-08-21T05:28:41;95416.47;;;22.20;57.79
26861;BME280;37676;46.956;7.430;2022-08-21T05:31:07;95056.75;;;19.86;57.69
26861;BME280;37676;46.956;7.430;2022-08-21T05:33:33;95368.84;;;21.96;58.01
26861;BME280;37676;46.956;7.430;2022-08-21T05:35:58;95413.06;;;22.21;58.13
26861;BME280;37676;46.956;7.430;2022-08-21T05:38:24;95380.38;;;22.05;58.07
26861;BME280;37676;46.956;7.430;2022-08-21T05:40:52;95408.91;;;22.22;58.05
26861;BME280;37676;46.956;7.430;2022-08-21T05:43:17;95416.09;;;22.31;58.13
26861;BME280;37676;46.956;7.430;2022-08-21T05:45:43;95419.88;;;22.33;58.00
26861;BME280;37676;46.956;7.430;2022-08-21T05:48:10;95408.91;;;22.37;57.97
26861;BME280;37676;46.956;7.430;2022-08-21T05:50:36;95411.56;;;22.43;58.02
26861;BME280;37676;46.956;7.430;2022-08-21T05:53:03;95408.88;;;22.45;57.84
26861;BME280;37676;46.956;7.430;2022-08-21T05:55:29;95412.47;;;22.45;57.97
26861;BME280;37676;46.956;7.430;2022-08-21T05:57:54;95399.25;;;22.40;57.96
26861;BME280;37676;46.956;7.430;2022-08-21T06:00:19;95407.19;;;22.49;58.04
26861;BME280;37676;46.956;7.430;2022-08-21T06:02:45;95411.72;;;22.52;58.03
26861;BME280;37676;46.956;7.430;2022-08-21T06:05:10;95400.56;;;22.54;57.85
26861;BME280;37676;46.956;7.430;2022-08-21T06:07:35;95411.53;;;22.58;57.78
26861;BME280;37676;46.956;7.430;2022-08-21T06:10:01;95411.16;;;22.61;58.21
26861;BME280;37676;46.956;7.430;2022-08-21T06:12:27;95400.78;;;22.56;58.06
26861;BME280;37676;46.956;7.430;2022-08-21T06:14:52;95394.53;;;22.58;58.04
26861;BME280;37676;46.956;7.430;2022-08-21T06:17:18;95405.47;;;22.69;57.78
26861;BME280;37676;46.956;7.430;2022-08-21T06:19:43;95201.38;;;21.39;57.83
26861;BME280;37676;46.956;7.430;2022-08-21T06:22:09;95114.00;;;20.83;57.71
26861;BME280;37676;46.956;7.430;2022-08-21T06:24:34;95403.16;;;22.83;58.21
26861;BME280;37676;46.956;7.430;2022-08-21T06:27:05;95399.38;;;22.88;57.95
26861;BME280;37676;46.956;7.430;2022-08-21T06:29:31;95405.03;;;22.88;57.92
26861;BME280;37676;46.956;7.430;2022-08-21T06:31:57;95361.06;;;22.64;57.65
26861;BME280;37676;46.956;7.430;2022-08-21T06:34:22;95405.22;;;22.90;57.84
26861;BME280;37676;46.956;7.430;2022-08-21T06:36:48;95162.72;;;21.34;57.73
26861;BME280;37676;46.956;7.430;2022-08-21T06:39:13;95185.69;;;21.53;57.73
26861;BME280;37676;46.956;7.430;2022-08-21T06:41:39;95394.25;;;22.94;57.67
26861;BME280;37676;46.956;7.430;2022-08-21T06:44:04;95378.59;;;22.85;57.91
26861;BME280;37676;46.956;7.430;2022-08-21T06:46:30;95394.44;;;22.96;57.66
26861;BME280;37676;46.956;7.430;2022-08-21T06:48:56;95405.22;;;22.97;58.03
26861;BME280;37676;46.956;7.430;2022-08-21T06:51:22;95397.47;;;22.98;57.79
26861;BME280;37676;46.956;7.430;2022-08-21T06:53:48;95398.97;;;22.99;57.92
26861;BME280;37676;46.956;7.430;2022-08-21T06:56:14;95394.81;;;23.00;57.96
26861;BME280;37676;46.956;7.430;2022-08-21T06:58:39;95157.78;;;21.42;57.61
26861;BME280;37676;46.956;7.430;2022-08-21T07:01:06;95391.75;;;23.05;57.76
26861;BME280;37676;46.956;7.430;2022-08-21T07:03:36;95392.69;;;23.08;57.72
26861;BME280;37676;46.956;7.430;2022-08-21T07:06:03;95391.38;;;23.09;57.73
26861;BME280;37676;46.956;7.430;2022-08-21T07:08:28;95343.78;;;22.85;57.88
26861;BME280;37676;46.956;7.430;2022-08-21T07:10:56;95386.78;;;23.13;57.74
26861;BME280;37676;46.956;7.430;2022-08-21T07:13:22;95339.25;;;22.82;57.89
26861;BME280;37676;46.956;7.430;2022-08-21T07:15:48;95379.63;;;23.12;57.75
26861;BME280;37676;46.956;7.430;2022-08-21T07:18:14;95389.81;;;23.15;57.68
26861;BME280;37676;46.956;7.430;2022-08-21T07:20:40;95388.09;;;23.20;57.88
26861;BME280;37676;46.956;7.430;2022-08-21T07:23:10;95394.88;;;23.24;57.85
26861;BME280;37676;46.956;7.430;2022-08-21T07:25:36;95375.03;;;23.17;57.75
26861;BME280;37676;46.956;7.430;2022-08-21T07:28:02;95386.75;;;23.21;57.82
26861;BME280;37676;46.956;7.430;2022-08-21T07:30:28;95192.81;;;21.99;57.71
26861;BME280;37676;46.956;7.430;2022-08-21T07:32:53;95366.19;;;23.13;57.76
26861;BME280;37676;46.956;7.430;2022-08-21T07:35:20;95395.41;;;23.38;57.84
26861;BME280;37676;46.956;7.430;2022-08-21T07:37:46;95404.13;;;23.40;57.82
26861;BME280;37676;46.956;7.430;2022-08-21T07:40:12;95412.06;;;23.41;57.98
26861;BME280;37676;46.956;7.430;2022-08-21T07:42:45;95401.81;;;23.46;57.98
26861;BME280;37676;46.956;7.430;2022-08-21T07:45:12;95403.31;;;23.47;58.15
26861;BME280;37676;46.956;7.430;2022-08-21T07:47:37;95339.91;;;23.05;58.38
26861;BME280;37676;46.956;7.430;2022-08-21T07:50:04;95403.09;;;23.52;58.18
26861;BME280;37676;46.956;7.430;2022-08-21T07:52:30;95408.38;;;23.56;58.23
26861;BME280;37676;46.956;7.430;2022-08-21T07:54:55;95407.81;;;23.57;58.28
26861;BME280;37676;46.956;7.430;2022-08-21T07:57:21;95407.41;;;23.61;58.17
26861;BME280;37676;46.956;7.430;2022-08-21T07:59:46;95410.41;;;23.63;58.32
26861;BME280;37676;46.956;7.430;2022-08-21T08:02:22;95412.84;;;23.67;57.93
26861;BME280;37676;46.956;7.430;2022-08-21T08:04:47;95408.13;;;23.69;58.17
26861;BME280;37676;46.956;7.430;2022-08-21T08:07:12;95409.66;;;23.70;57.90
26861;BME280;37676;46.956;7.430;2022-08-21T08:09:38;95394.91;;;23.64;58.31
26861;BME280;37676;46.956;7.430;2022-08-21T08:12:04;95390.03;;;23.57;58.33
26861;BME280;37676;46.956;7.430;2022-08-21T08:14:29;95406.81;;;23.70;57.98
26861;BME280;37676;46.956;7.430;2022-08-21T08:16:54;95356.84;;;23.35;58.18
26861;BME280;37676;46.956;7.430;2022-08-21T08:19:19;95406.44;;;23.66;58.24
26861;BME280;37676;46.956;7.430;2022-08-21T08:21:45;95400.19;;;23.68;58.25
26861;BME280;37676;46.956;7.430;2022-08-21T08:24:10;95388.84;;;23.60;58.26
26861;BME280;37676;46.956;7.430;2022-08-21T08:26:35;95399.00;;;23.71;58.25
26861;BME280;37676;46.956;7.430;2022-08-21T08:29:01;95398.44;;;23.72;58.16
26861;BME280;37676;46.956;7.430;2022-08-21T08:31:26;95395.94;;;23.76;58.06
26861;BME280;37676;46.956;7.430;2022-08-21T08:33:52;95387.41;;;23.76;57.87
26861;BME280;37676;46.956;7.430;2022-08-21T08:36:18;95364.78;;;23.61;57.62
26861;BME280;37676;46.956;7.430;2022-08-21T08:38:44;95395.00;;;23.81;57.52
26861;BME280;37676;46.956;7.430;2022-08-21T08:41:16;95387.38;;;23.84;57.14
26861;BME280;37676;46.956;7.430;2022-08-21T08:43:52;94985.78;;;21.18;57.19
26861;BME280;37676;46.956;7.430;2022-08-21T08:46:32;95380.88;;;23.91;56.98
26861;BME280;37676;46.956;7.430;2022-08-21T08:49:04;95381.06;;;23.93;56.97
26861;BME280;37676;46.956;7.430;2022-08-21T08:52:05;95367.66;;;23.86;57.16
26861;BME280;37676;46.956;7.430;2022-08-21T08:55:04;95380.66;;;23.96;57.27
26861;BME280;37676;46.956;7.430;2022-08-21T08:57:31;95374.19;;;24.03;57.54
26861;BME280;37676;46.956;7.430;2022-08-21T09:00:00;95371.84;;;24.09;57.50
26861;BME280;37676;46.956;7.430;2022-08-21T09:02:25;95375.63;;;24.12;57.11
26861;BME280;37676;46.956;7.430;2022-08-21T09:04:53;95376.75;;;24.16;57.34
26861;BME280;37676;46.956;7.430;2022-08-21T09:07:35;95400.59;;;24.21;57.20
26861;BME280;37676;46.956;7.430;2022-08-21T09:15:06;95362.56;;;24.33;57.40
26861;BME280;37676;46.956;7.430;2022-08-21T09:20:21;95362.75;;;24.52;57.67
26861;BME280;37676;46.956;7.430;2022-08-21T09:25:27;95360.13;;;24.72;57.26
26861;BME280;37676;46.956;7.430;2022-08-21T09:27:54;95360.03;;;24.79;57.53
26861;BME280;37676;46.956;7.430;2022-08-21T09:30:26;95348.72;;;24.89;57.34
26861;BME280;37676;46.956;7.430;2022-08-21T09:32:52;95120.16;;;23.40;57.37
26861;BME280;37676;46.956;7.430;2022-08-21T09:35:20;95345.88;;;25.06;57.30
26861;BME280;37676;46.956;7.430;2022-08-21T09:37:59;95344.59;;;25.16;57.06
26861;BME280;37676;46.956;7.430;2022-08-21T09:43:05;95047.81;;;23.41;57.27
26861;BME280;37676;46.956;7.430;2022-08-21T09:45:33;95337.75;;;25.46;57.12
26861;BME280;37676;46.956;7.430;2022-08-21T09:48:10;95334.97;;;25.56;56.75
26861;BME280;37676;46.956;7.430;2022-08-21T09:50:36;95335.63;;;25.64;56.84
26861;BME280;37676;46.956;7.430;2022-08-21T09:53:02;94987.72;;;23.35;56.52
26861;BME280;37676;46.956;7.430;2022-08-21T09:55:33;95342.69;;;25.72;56.29
26861;BME280;37676;46.956;7.430;2022-08-21T09:58:18;95338.53;;;25.73;56.10
26861;BME280;37676;46.956;7.430;2022-08-21T10:00:44;95347.22;;;25.75;55.85
26861;BME280;37676;46.956;7.430;2022-08-21T10:03:15;95328.94;;;25.78;54.95
26861;BME280;37676;46.956;7.430;2022-08-21T10:05:58;95324.72;;;25.79;54.56
26861;BME280;37676;46.956;7.430;2022-08-21T10:08:27;95326.69;;;25.77;53.77
26861;BME280;37676;46.956;7.430;2022-08-21T10:11:03;95322.91;;;25.74;53.58
26861;BME280;37676;46.956;7.430;2022-08-21T10:13:52;95286.38;;;25.54;53.52
26861;BME280;37676;46.956;7.430;2022-08-21T10:21:42;95310.56;;;25.98;54.13
26861;BME280;37676;46.956;7.430;2022-08-21T10:24:37;95314.06;;;26.06;54.20
26861;BME280;37676;46.956;7.430;2022-08-21T10:30:00;95306.16;;;26.24;53.96
26861;BME280;37676;46.956;7.430;2022-08-21T10:33:00;95303.16;;;26.31;53.39
26861;BME280;37676;46.956;7.430;2022-08-21T10:35:32;95302.28;;;26.38;53.11
26861;BME280;37676;46.956;7.430;2022-08-21T10:43:54;95267.59;;;26.42;52.41
26861;BME280;37676;46.956;7.430;2022-08-21T10:46:39;95294.06;;;26.62;52.10
26861;BME280;37676;46.956;7.430;2022-08-21T10:49:21;95282.06;;;26.73;52.45
26861;BME280;37676;46.956;7.430;2022-08-21T10:52:09;95283.25;;;26.79;52.34
26861;BME280;37676;46.956;7.430;2022-08-21T10:54:45;95278.72;;;26.86;52.06
26861;BME280;37676;46.956;7.430;2022-08-21T10:57:27;95276.63;;;26.96;51.91
26861;BME280;37676;46.956;7.430;2022-08-21T11:00:04;95273.75;;;27.05;51.96
26861;BME280;37676;46.956;7.430;2022-08-21T11:05:50;95275.69;;;27.22;51.85
26861;BME280;37676;46.956;7.430;2022-08-21T11:08:26;95279.00;;;27.28;51.27
26861;BME280;37676;46.956;7.430;2022-08-21T11:10:59;95268.63;;;27.32;51.26
26861;BME280;37676;46.956;7.430;2022-08-21T11:13:43;95268.16;;;27.36;50.99
26861;BME280;37676;46.956;7.430;2022-08-21T11:18:55;95267.53;;;27.47;50.46
26861;BME280;37676;46.956;7.430;2022-08-21T11:21:38;95272.03;;;27.50;50.42
26861;BME280;37676;46.956;7.430;2022-08-21T11:24:23;95263.72;;;27.54;50.75
26861;BME280;37676;46.956;7.430;2022-08-21T11:29:48;95199.31;;;27.22;49.59
26861;BME280;37676;46.956;7.430;2022-08-21T11:46:01;95259.97;;;27.92;49.56
26861;BME280;37676;46.956;7.430;2022-08-21T11:51:22;95220.13;;;27.84;49.46
26861;BME280;37676;46.956;7.430;2022-08-21T11:56:38;95245.94;;;28.05;48.79
26861;BME280;37676;46.956;7.430;2022-08-21T11:59:18;95235.97;;;28.06;48.76
26861;BME280;37676;46.956;7.430;2022-08-21T12:01:48;95240.47;;;28.09;48.72
26861;BME280;37676;46.956;7.430;2022-08-21T12:04:31;95212.91;;;27.83;48.25
26861;BME280;37676;46.956;7.430;2022-08-21T12:07:10;95057.53;;;26.87;48.13
26861;BME280;37676;46.956;7.430;2022-08-21T12:09:35;95228.75;;;28.05;48.30
26861;BME280;37676;46.956;7.430;2022-08-21T12:12:32;95232.50;;;28.08;48.08
26861;BME280;37676;46.956;7.430;2022-08-21T12:17:55;95230.53;;;28.10;47.32
26861;BME280;37676;46.956;7.430;2022-08-21T12:22:52;95232.44;;;28.17;47.33
26861;BME280;37676;46.956;7.430;2022-08-21T12:25:19;95210.50;;;28.10;46.79
26861;BME280;37676;46.956;7.430;2022-08-21T12:27:49;95219.91;;;28.22;46.50
26861;BME280;37676;46.956;7.430;2022-08-21T12:30:33;95221.56;;;28.25;46.77
26861;BME280;37676;46.956;7.430;2022-08-21T12:33:05;95213.34;;;28.31;45.70
26861;BME280;37676;46.956;7.430;2022-08-21T12:35:40;95202.72;;;28.22;44.83
26861;BME280;37676;46.956;7.430;2022-08-21T12:38:22;95203.97;;;28.19;45.32
26861;BME280;37676;46.956;7.430;2022-08-21T12:40:54;95172.22;;;27.94;45.62
26861;BME280;37676;46.956;7.430;2022-08-21T12:43:30;95220.19;;;28.26;45.75
26861;BME280;37676;46.956;7.430;2022-08-21T12:45:56;95209.91;;;28.33;45.25
26861;BME280;37676;46.956;7.430;2022-08-21T12:48:28;95211.88;;;28.30;45.48
26861;BME280;37676;46.956;7.430;2022-08-21T12:50:56;95223.19;;;28.28;45.51
26861;BME280;37676;46.956;7.430;2022-08-21T12:53:35;95203.91;;;28.29;45.44
26861;BME280;37676;46.956;7.430;2022-08-21T12:56:09;95204.78;;;28.31;45.15
26861;BME280;37676;46.956;7.430;2022-08-21T12:58:34;95203.41;;;28.32;45.46
26861;BME280;37676;46.956;7.430;2022-08-21T13:01:07;95203.06;;;28.38;45.34
26861;BME280;37676;46.956;7.430;2022-08-21T13:03:38;95203.06;;;28.38;45.30
26861;BME280;37676;46.956;7.430;2022-08-21T13:06:06;95197.69;;;28.32;44.97
26861;BME280;37676;46.956;7.430;2022-08-21T13:08:33;95045.38;;;27.17;45.00
26861;BME280;37676;46.956;7.430;2022-08-21T13:11:02;95171.75;;;27.98;42.81
26861;BME280;37676;46.956;7.430;2022-08-21T13:13:28;95204.03;;;28.31;43.67
26861;BME280;37676;46.956;7.430;2022-08-21T13:16:02;95186.03;;;28.19;43.79
26861;BME280;37676;46.956;7.430;2022-08-21T13:18:30;95210.16;;;28.37;43.88
26861;BME280;37676;46.956;7.430;2022-08-21T13:21:26;95207.56;;;28.41;43.99
26861;BME280;37676;46.956;7.430;2022-08-21T13:23:52;95196.88;;;28.42;43.89
26861;BME280;37676;46.956;7.430;2022-08-21T13:26:21;95203.63;;;28.46;44.06
26861;BME280;37676;46.956;7.430;2022-08-21T13:28:48;95186.66;;;28.39;43.85
26861;BME280;37676;46.956;7.430;2022-08-21T13:31:22;95005.66;;;27.21;43.79
26861;BME280;37676;46.956;7.430;2022-08-21T13:33:49;95187.44;;;28.51;44.19
26861;BME280;37676;46.956;7.430;2022-08-21T13:36:26;95192.84;;;28.56;44.08
26861;BME280;37676;46.956;7.430;2022-08-21T13:38:54;95199.97;;;28.55;43.43
26861;BME280;37676;46.956;7.430;2022-08-21T13:41:24;95174.25;;;28.46;43.29
26861;BME280;37676;46.956;7.430;2022-08-21T13:44:02;95202.72;;;28.65;43.37
26861;BME280;37676;46.956;7.430;2022-08-21T13:46:32;95123.59;;;28.15;43.42
26861;BME280;37676;46.956;7.430;2022-08-21T13:49:00;95192.78;;;28.66;43.35
26861;BME280;37676;46.956;7.430;2022-08-21T13:51:26;95166.06;;;28.52;43.47
26861;BME280;37676;46.956;7.430;2022-08-21T13:53:53;95190.31;;;28.72;43.33
26861;BME280;37676;46.956;7.430;2022-08-21T13:56:33;95189.56;;;28.71;43.43
26861;BME280;37676;46.956;7.430;2022-08-21T13:59:05;95198.91;;;28.72;43.26
26861;BME280;37676;46.956;7.430;2022-08-21T14:02:38;95187.59;;;28.74;43.45
26861;BME280;37676;46.956;7.430;2022-08-21T14:04:35;95186.22;;;28.75;43.25
26861;BME280;37676;46.956;7.430;2022-08-21T14:07:02;95192.06;;;28.77;43.29
26861;BME280;37676;46.956;7.430;2022-08-21T14:09:41;95155.16;;;28.60;42.86